Rockway

*Note: All times are displayed in the local standard time of the station location.
**Rain - Equipment is designed to accurately record liquid precipitation; under conditions when precipitation is not in liquid form, the data displayed may not properly reflect rainfall values.

Date Max Temp
(°C)
Min Temp
(°C)
Avg Temp
(°C)
Rain (mm) Avg RH (%)
Fri, Dec 14, 2018 6.6 -2.3 3.5 1.8 83.6
Thu, Dec 13, 2018 6.9 -1.6 1.0 1.0 92.0
Wed, Dec 12, 2018 1.5 -5.1 -0.9 0.0 84.1
Tue, Dec 11, 2018 -0.2 -1.9 -1.2 0.0 80.5
Mon, Dec 10, 2018 1.2 -2.8 -0.9 0.0 79.4
Sun, Dec 09, 2018 0.6 -8.3 -3.1 0.0 74.5
Sat, Dec 08, 2018 -0.3 -6.5 -3.5 0.0 74.4
DateTime Avg Temp (°C) Rain (mm) RH (%)
Sat, Dec 15, 2018 16:00 3.1 0.0 83.8
Sat, Dec 15, 2018 15:00 3.4 0.0 82.9
Sat, Dec 15, 2018 14:00 3.7 0.0 81.0
Sat, Dec 15, 2018 13:00 3.9 0.0 80.4
Sat, Dec 15, 2018 12:00 3.4 0.0 85.9
Sat, Dec 15, 2018 11:00 2.6 0.0 95.9
Sat, Dec 15, 2018 10:00 1.6 0.0 99.9
Sat, Dec 15, 2018 09:00 0.6 0.0 99.9
Sat, Dec 15, 2018 08:00 0.7 0.0 99.9
Sat, Dec 15, 2018 07:00 0.1 0.0 99.9
Sat, Dec 15, 2018 06:00 0.0 0.0 99.9
Sat, Dec 15, 2018 05:00 -0.3 0.0 99.9
Sat, Dec 15, 2018 04:00 1.0 0.0 98.1
Sat, Dec 15, 2018 03:00 2.9 0.0 90.6
Sat, Dec 15, 2018 02:00 1.6 0.0 97.3
Sat, Dec 15, 2018 01:00 2.9 0.0 89.1
Sat, Dec 15, 2018 00:00 4.4 0.0 82.9
Fri, Dec 14, 2018 23:00 4.5 0.0 83.1
Fri, Dec 14, 2018 22:00 4.9 0.0 79.5
Fri, Dec 14, 2018 21:00 4.6 0.0 79.7
Fri, Dec 14, 2018 20:00 3.9 0.0 83.8
Fri, Dec 14, 2018 19:00 4.3 0.0 79.0
Fri, Dec 14, 2018 18:00 4.6 0.0 74.8
Fri, Dec 14, 2018 17:00 6.0 0.0 69.0
Fri, Dec 14, 2018 16:00 6.3 0.0 70.6
Fri, Dec 14, 2018 15:00 6.0 0.0 75.4
Fri, Dec 14, 2018 14:00 5.3 0.0 78.1
Fri, Dec 14, 2018 13:00 4.7 0.0 83.5
Fri, Dec 14, 2018 12:00 4.1 0.2 90.2
Fri, Dec 14, 2018 11:00 3.8 1.2 89.5
Fri, Dec 14, 2018 10:00 3.9 0.4 83.5
Fri, Dec 14, 2018 09:00 3.9 0.0 80.0
Fri, Dec 14, 2018 08:00 3.6 0.0 81.4
Fri, Dec 14, 2018 07:00 2.9 0.0 84.3
Fri, Dec 14, 2018 06:00 2.6 0.0 83.1
Fri, Dec 14, 2018 05:00 2.2 0.0 84.3
Fri, Dec 14, 2018 04:00 -0.4 0.0 98.0
Fri, Dec 14, 2018 03:00 -1.4 0.0 99.5
Fri, Dec 14, 2018 02:00 0.1 0.0 96.9
Fri, Dec 14, 2018 01:00 0.1 0.0 95.8
Fri, Dec 14, 2018 00:00 -0.3 0.0 96.6
Thu, Dec 13, 2018 23:00 0.1 0.0 94.9
Thu, Dec 13, 2018 22:00 -0.7 0.0 99.9
Thu, Dec 13, 2018 21:00 -0.8 0.0 99.9
Thu, Dec 13, 2018 20:00 0.0 0.0 99.2
Thu, Dec 13, 2018 19:00 1.1 0.0 94.3
Thu, Dec 13, 2018 18:00 1.4 0.0 91.8
Thu, Dec 13, 2018 17:00 2.0 0.0 87.6


asterix Register now to access more data! asterix